sensor_id;sensor_type;location;lat;lon;timestamp;P1;durP1;ratioP1;P2;durP2;ratioP2
23678;SDS011;12016;51.668;6.874;2022-09-09T00:05:23;1.70;;;1.20;;
23678;SDS011;12016;51.668;6.874;2022-09-09T00:11:43;1.50;;;1.40;;
23678;SDS011;12016;51.668;6.874;2022-09-09T00:17:53;1.80;;;1.45;;
23678;SDS011;12016;51.668;6.874;2022-09-09T00:23:56;2.67;;;1.75;;
23678;SDS011;12016;51.668;6.874;2022-09-09T00:30:17;2.60;;;1.70;;
23678;SDS011;12016;51.668;6.874;2022-09-09T00:36:24;2.05;;;1.50;;
23678;SDS011;12016;51.668;6.874;2022-09-09T00:42:40;3.25;;;1.80;;
23678;SDS011;12016;51.668;6.874;2022-09-09T00:55:13;2.13;;;1.60;;
23678;SDS011;12016;51.668;6.874;2022-09-09T01:01:20;2.80;;;1.55;;
23678;SDS011;12016;51.668;6.874;2022-09-09T01:07:22;2.30;;;1.75;;
23678;SDS011;12016;51.668;6.874;2022-09-09T01:13:25;2.83;;;1.92;;
23678;SDS011;12016;51.668;6.874;2022-09-09T01:38:47;2.58;;;1.80;;
23678;SDS011;12016;51.668;6.874;2022-09-09T01:44:50;2.38;;;1.80;;
23678;SDS011;12016;51.668;6.874;2022-09-09T01:50:52;2.97;;;1.65;;
23678;SDS011;12016;51.668;6.874;2022-09-09T01:57:05;2.35;;;1.80;;
23678;SDS011;12016;51.668;6.874;2022-09-09T02:03:24;2.03;;;1.60;;
23678;SDS011;12016;51.668;6.874;2022-09-09T02:09:34;1.90;;;1.40;;
23678;SDS011;12016;51.668;6.874;2022-09-09T02:21:46;2.38;;;1.73;;
23678;SDS011;12016;51.668;6.874;2022-09-09T02:27:50;2.40;;;1.42;;
23678;SDS011;12016;51.668;6.874;2022-09-09T02:33:54;1.92;;;1.50;;
23678;SDS011;12016;51.668;6.874;2022-09-09T02:39:59;3.78;;;1.60;;
23678;SDS011;12016;51.668;6.874;2022-09-09T02:46:54;2.35;;;1.75;;
23678;SDS011;12016;51.668;6.874;2022-09-09T02:52:36;2.50;;;1.65;;
23678;SDS011;12016;51.668;6.874;2022-09-09T02:58:48;3.75;;;1.70;;
23678;SDS011;12016;51.668;6.874;2022-09-09T03:04:51;3.65;;;1.80;;
23678;SDS011;12016;51.668;6.874;2022-09-09T03:10:57;2.22;;;1.60;;
23678;SDS011;12016;51.668;6.874;2022-09-09T03:17:06;2.72;;;1.70;;
23678;SDS011;12016;51.668;6.874;2022-09-09T03:23:13;4.03;;;2.10;;
23678;SDS011;12016;51.668;6.874;2022-09-09T03:29:17;2.80;;;2.30;;
23678;SDS011;12016;51.668;6.874;2022-09-09T03:35:20;2.58;;;1.70;;
23678;SDS011;12016;51.668;6.874;2022-09-09T03:41:22;3.45;;;1.83;;
23678;SDS011;12016;51.668;6.874;2022-09-09T03:47:25;2.50;;;1.90;;
23678;SDS011;12016;51.668;6.874;2022-09-09T03:53:33;3.13;;;1.80;;
23678;SDS011;12016;51.668;6.874;2022-09-09T03:59:37;2.08;;;1.60;;
23678;SDS011;12016;51.668;6.874;2022-09-09T04:05:40;2.72;;;1.85;;
23678;SDS011;12016;51.668;6.874;2022-09-09T04:11:44;4.47;;;1.88;;
23678;SDS011;12016;51.668;6.874;2022-09-09T04:17:48;3.63;;;2.13;;
23678;SDS011;12016;51.668;6.874;2022-09-09T04:23:52;3.05;;;2.08;;
23678;SDS011;12016;51.668;6.874;2022-09-09T04:29:54;3.88;;;2.28;;
23678;SDS011;12016;51.668;6.874;2022-09-09T04:35:58;4.45;;;2.10;;
23678;SDS011;12016;51.668;6.874;2022-09-09T04:42:01;5.82;;;2.10;;
23678;SDS011;12016;51.668;6.874;2022-09-09T04:48:03;3.92;;;1.90;;
23678;SDS011;12016;51.668;6.874;2022-09-09T04:54:05;3.58;;;1.92;;
23678;SDS011;12016;51.668;6.874;2022-09-09T05:00:13;5.07;;;2.03;;
23678;SDS011;12016;51.668;6.874;2022-09-09T05:06:17;3.63;;;1.90;;
23678;SDS011;12016;51.668;6.874;2022-09-09T05:12:23;3.38;;;2.10;;
23678;SDS011;12016;51.668;6.874;2022-09-09T05:18:27;3.15;;;2.05;;
23678;SDS011;12016;51.668;6.874;2022-09-09T05:24:29;3.83;;;2.00;;
23678;SDS011;12016;51.668;6.874;2022-09-09T05:30:34;4.80;;;2.30;;
23678;SDS011;12016;51.668;6.874;2022-09-09T05:36:40;5.72;;;2.08;;
23678;SDS011;12016;51.668;6.874;2022-09-09T05:42:43;7.63;;;2.53;;
23678;SDS011;12016;51.668;6.874;2022-09-09T05:48:46;4.07;;;1.90;;
23678;SDS011;12016;51.668;6.874;2022-09-09T05:54:50;5.63;;;2.00;;
23678;SDS011;12016;51.668;6.874;2022-09-09T06:00:52;5.07;;;2.00;;
23678;SDS011;12016;51.668;6.874;2022-09-09T06:07:01;4.88;;;2.22;;
23678;SDS011;12016;51.668;6.874;2022-09-09T06:13:04;5.57;;;2.60;;
23678;SDS011;12016;51.668;6.874;2022-09-09T06:19:06;4.55;;;2.38;;
23678;SDS011;12016;51.668;6.874;2022-09-09T06:25:08;6.68;;;2.20;;
23678;SDS011;12016;51.668;6.874;2022-09-09T06:31:13;4.78;;;2.20;;
23678;SDS011;12016;51.668;6.874;2022-09-09T06:37:19;5.15;;;2.30;;
23678;SDS011;12016;51.668;6.874;2022-09-09T06:43:24;5.38;;;2.40;;
23678;SDS011;12016;51.668;6.874;2022-09-09T06:49:29;5.38;;;2.20;;
23678;SDS011;12016;51.668;6.874;2022-09-09T06:55:31;5.60;;;2.45;;
23678;SDS011;12016;51.668;6.874;2022-09-09T07:01:41;5.28;;;2.30;;
23678;SDS011;12016;51.668;6.874;2022-09-09T07:07:48;6.25;;;2.38;;
23678;SDS011;12016;51.668;6.874;2022-09-09T07:13:53;5.35;;;2.42;;
23678;SDS011;12016;51.668;6.874;2022-09-09T07:19:55;7.50;;;2.60;;
23678;SDS011;12016;51.668;6.874;2022-09-09T07:25:58;6.35;;;2.20;;
23678;SDS011;12016;51.668;6.874;2022-09-09T07:32:01;5.43;;;2.35;;
23678;SDS011;12016;51.668;6.874;2022-09-09T07:38:11;4.57;;;2.15;;
23678;SDS011;12016;51.668;6.874;2022-09-09T07:44:20;8.35;;;2.53;;
23678;SDS011;12016;51.668;6.874;2022-09-09T07:50:30;6.43;;;2.50;;
23678;SDS011;12016;51.668;6.874;2022-09-09T07:56:33;5.35;;;2.00;;
23678;SDS011;12016;51.668;6.874;2022-09-09T08:02:35;5.47;;;2.30;;
23678;SDS011;12016;51.668;6.874;2022-09-09T08:08:37;7.20;;;2.28;;
23678;SDS011;12016;51.668;6.874;2022-09-09T08:14:40;4.97;;;1.80;;
23678;SDS011;12016;51.668;6.874;2022-09-09T08:20:43;4.70;;;2.17;;
23678;SDS011;12016;51.668;6.874;2022-09-09T08:26:46;8.02;;;2.10;;
23678;SDS011;12016;51.668;6.874;2022-09-09T08:32:54;5.25;;;2.00;;
23678;SDS011;12016;51.668;6.874;2022-09-09T08:38:57;4.30;;;1.77;;
23678;SDS011;12016;51.668;6.874;2022-09-09T08:51:14;4.32;;;1.60;;
23678;SDS011;12016;51.668;6.874;2022-09-09T08:57:19;4.82;;;1.75;;
23678;SDS011;12016;51.668;6.874;2022-09-09T09:10:03;5.18;;;2.00;;
23678;SDS011;12016;51.668;6.874;2022-09-09T09:16:40;4.63;;;1.60;;
23678;SDS011;12016;51.668;6.874;2022-09-09T09:22:58;4.28;;;1.80;;
23678;SDS011;12016;51.668;6.874;2022-09-09T09:29:10;4.20;;;1.60;;
23678;SDS011;12016;51.668;6.874;2022-09-09T09:35:15;4.30;;;1.60;;
23678;SDS011;12016;51.668;6.874;2022-09-09T09:41:28;4.80;;;1.95;;
23678;SDS011;12016;51.668;6.874;2022-09-09T09:47:45;4.22;;;1.85;;
23678;SDS011;12016;51.668;6.874;2022-09-09T09:53:49;5.03;;;1.80;;
23678;SDS011;12016;51.668;6.874;2022-09-09T10:00:00;4.10;;;1.90;;
23678;SDS011;12016;51.668;6.874;2022-09-09T10:06:15;3.30;;;1.50;;
23678;SDS011;12016;51.668;6.874;2022-09-09T10:25:01;3.70;;;1.40;;
23678;SDS011;12016;51.668;6.874;2022-09-09T10:31:15;2.88;;;1.40;;
23678;SDS011;12016;51.668;6.874;2022-09-09T10:57:11;3.05;;;1.40;;
23678;SDS011;12016;51.668;6.874;2022-09-09T11:03:22;4.95;;;1.88;;
23678;SDS011;12016;51.668;6.874;2022-09-09T11:09:28;2.60;;;1.30;;
23678;SDS011;12016;51.668;6.874;2022-09-09T11:15:35;3.22;;;2.28;;
23678;SDS011;12016;51.668;6.874;2022-09-09T11:21:52;3.97;;;1.50;;
23678;SDS011;12016;51.668;6.874;2022-09-09T11:28:06;2.47;;;1.30;;
23678;SDS011;12016;51.668;6.874;2022-09-09T11:34:19;3.67;;;1.55;;
23678;SDS011;12016;51.668;6.874;2022-09-09T11:40:32;3.25;;;1.45;;
23678;SDS011;12016;51.668;6.874;2022-09-09T11:46:36;5.20;;;1.73;;
23678;SDS011;12016;51.668;6.874;2022-09-09T11:52:42;3.05;;;1.40;;
23678;SDS011;12016;51.668;6.874;2022-09-09T11:58:54;1.80;;;1.10;;
23678;SDS011;12016;51.668;6.874;2022-09-09T12:11:06;3.22;;;1.50;;
23678;SDS011;12016;51.668;6.874;2022-09-09T12:17:18;2.30;;;1.30;;
23678;SDS011;12016;51.668;6.874;2022-09-09T12:38:22;2.88;;;1.23;;
23678;SDS011;12016;51.668;6.874;2022-09-09T12:44:38;2.67;;;1.00;;
23678;SDS011;12016;51.668;6.874;2022-09-09T12:50:44;2.70;;;1.00;;
23678;SDS011;12016;51.668;6.874;2022-09-09T12:56:53;1.65;;;1.10;;
23678;SDS011;12016;51.668;6.874;2022-09-09T13:02:56;5.30;;;1.10;;
23678;SDS011;12016;51.668;6.874;2022-09-09T13:09:01;1.48;;;1.08;;
23678;SDS011;12016;51.668;6.874;2022-09-09T13:15:04;2.67;;;1.10;;
23678;SDS011;12016;51.668;6.874;2022-09-09T13:21:12;2.45;;;1.08;;
23678;SDS011;12016;51.668;6.874;2022-09-09T13:33:44;3.22;;;1.25;;
23678;SDS011;12016;51.668;6.874;2022-09-09T13:39:50;2.65;;;1.27;;
23678;SDS011;12016;51.668;6.874;2022-09-09T13:45:55;3.15;;;1.70;;
23678;SDS011;12016;51.668;6.874;2022-09-09T13:52:04;2.55;;;1.60;;
23678;SDS011;12016;51.668;6.874;2022-09-09T13:58:17;2.80;;;1.58;;
23678;SDS011;12016;51.668;6.874;2022-09-09T14:04:20;3.92;;;1.60;;
23678;SDS011;12016;51.668;6.874;2022-09-09T14:10:23;4.32;;;1.58;;
23678;SDS011;12016;51.668;6.874;2022-09-09T14:16:25;2.90;;;1.30;;
23678;SDS011;12016;51.668;6.874;2022-09-09T14:22:29;3.50;;;1.30;;
23678;SDS011;12016;51.668;6.874;2022-09-09T14:28:31;2.17;;;1.40;;
23678;SDS011;12016;51.668;6.874;2022-09-09T14:34:55;2.72;;;1.38;;
23678;SDS011;12016;51.668;6.874;2022-09-09T14:40:56;2.40;;;1.20;;
23678;SDS011;12016;51.668;6.874;2022-09-09T14:47:04;2.50;;;1.20;;
23678;SDS011;12016;51.668;6.874;2022-09-09T14:53:07;3.92;;;1.27;;
23678;SDS011;12016;51.668;6.874;2022-09-09T14:59:10;4.35;;;1.50;;
23678;SDS011;12016;51.668;6.874;2022-09-09T15:05:12;4.18;;;1.63;;
23678;SDS011;12016;51.668;6.874;2022-09-09T15:11:14;3.47;;;1.67;;
23678;SDS011;12016;51.668;6.874;2022-09-09T15:17:17;2.42;;;1.30;;
23678;SDS011;12016;51.668;6.874;2022-09-09T15:23:19;4.95;;;1.40;;
23678;SDS011;12016;51.668;6.874;2022-09-09T15:29:20;3.78;;;1.42;;
23678;SDS011;12016;51.668;6.874;2022-09-09T15:35:22;2.35;;;1.35;;
23678;SDS011;12016;51.668;6.874;2022-09-09T15:41:24;2.70;;;1.60;;
23678;SDS011;12016;51.668;6.874;2022-09-09T15:47:26;2.20;;;1.50;;
23678;SDS011;12016;51.668;6.874;2022-09-09T15:53:31;3.42;;;1.50;;
23678;SDS011;12016;51.668;6.874;2022-09-09T15:59:34;2.92;;;2.05;;
23678;SDS011;12016;51.668;6.874;2022-09-09T16:05:36;3.58;;;1.98;;
23678;SDS011;12016;51.668;6.874;2022-09-09T16:11:38;3.40;;;1.92;;
23678;SDS011;12016;51.668;6.874;2022-09-09T16:17:40;2.33;;;1.70;;
23678;SDS011;12016;51.668;6.874;2022-09-09T16:23:42;3.35;;;1.80;;
23678;SDS011;12016;51.668;6.874;2022-09-09T16:29:45;3.10;;;1.80;;
23678;SDS011;12016;51.668;6.874;2022-09-09T16:35:47;2.95;;;1.67;;
23678;SDS011;12016;51.668;6.874;2022-09-09T16:41:52;4.28;;;2.08;;
23678;SDS011;12016;51.668;6.874;2022-09-09T16:47:55;6.53;;;2.30;;
23678;SDS011;12016;51.668;6.874;2022-09-09T16:54:04;3.83;;;1.80;;
23678;SDS011;12016;51.668;6.874;2022-09-09T17:00:10;2.67;;;1.60;;
23678;SDS011;12016;51.668;6.874;2022-09-09T17:06:12;3.28;;;1.50;;
23678;SDS011;12016;51.668;6.874;2022-09-09T17:12:17;2.92;;;1.40;;
23678;SDS011;12016;51.668;6.874;2022-09-09T17:18:19;3.05;;;1.35;;
23678;SDS011;12016;51.668;6.874;2022-09-09T17:24:29;2.03;;;1.20;;
23678;SDS011;12016;51.668;6.874;2022-09-09T17:30:33;2.25;;;1.20;;
23678;SDS011;12016;51.668;6.874;2022-09-09T17:36:36;1.88;;;1.30;;
23678;SDS011;12016;51.668;6.874;2022-09-09T17:42:38;1.90;;;1.48;;
23678;SDS011;12016;51.668;6.874;2022-09-09T17:48:44;1.52;;;1.42;;
23678;SDS011;12016;51.668;6.874;2022-09-09T17:54:46;2.70;;;1.90;;
23678;SDS011;12016;51.668;6.874;2022-09-09T18:00:49;2.65;;;1.80;;
23678;SDS011;12016;51.668;6.874;2022-09-09T18:06:52;4.53;;;1.73;;
23678;SDS011;12016;51.668;6.874;2022-09-09T18:12:57;3.53;;;1.90;;
23678;SDS011;12016;51.668;6.874;2022-09-09T18:18:58;3.72;;;2.00;;
23678;SDS011;12016;51.668;6.874;2022-09-09T18:25:00;2.47;;;1.67;;
23678;SDS011;12016;51.668;6.874;2022-09-09T18:31:06;2.80;;;1.80;;
23678;SDS011;12016;51.668;6.874;2022-09-09T18:37:09;3.03;;;1.80;;
23678;SDS011;12016;51.668;6.874;2022-09-09T18:43:11;2.45;;;1.77;;
23678;SDS011;12016;51.668;6.874;2022-09-09T18:49:13;4.05;;;3.65;;
23678;SDS011;12016;51.668;6.874;2022-09-09T18:55:16;5.80;;;3.50;;
23678;SDS011;12016;51.668;6.874;2022-09-09T19:01:18;12.43;;;5.13;;
23678;SDS011;12016;51.668;6.874;2022-09-09T19:07:20;6.38;;;3.88;;
23678;SDS011;12016;51.668;6.874;2022-09-09T19:13:21;5.53;;;3.55;;
23678;SDS011;12016;51.668;6.874;2022-09-09T19:19:26;7.43;;;4.32;;
23678;SDS011;12016;51.668;6.874;2022-09-09T19:25:29;5.85;;;3.55;;
23678;SDS011;12016;51.668;6.874;2022-09-09T19:31:33;2.35;;;1.90;;
23678;SDS011;12016;51.668;6.874;2022-09-09T19:37:37;1.85;;;1.50;;
23678;SDS011;12016;51.668;6.874;2022-09-09T19:43:39;1.88;;;1.38;;
23678;SDS011;12016;51.668;6.874;2022-09-09T19:49:41;2.20;;;1.63;;
23678;SDS011;12016;51.668;6.874;2022-09-09T19:55:49;2.25;;;1.70;;
23678;SDS011;12016;51.668;6.874;2022-09-09T20:01:52;2.10;;;1.75;;
23678;SDS011;12016;51.668;6.874;2022-09-09T20:07:53;3.30;;;2.03;;
23678;SDS011;12016;51.668;6.874;2022-09-09T20:13:55;4.10;;;2.22;;
23678;SDS011;12016;51.668;6.874;2022-09-09T20:19:57;3.88;;;2.05;;
23678;SDS011;12016;51.668;6.874;2022-09-09T20:26:00;3.58;;;2.30;;
23678;SDS011;12016;51.668;6.874;2022-09-09T20:32:09;4.47;;;2.20;;
23678;SDS011;12016;51.668;6.874;2022-09-09T20:38:12;5.97;;;2.22;;
23678;SDS011;12016;51.668;6.874;2022-09-09T20:44:15;5.47;;;1.95;;
23678;SDS011;12016;51.668;6.874;2022-09-09T20:50:18;2.92;;;1.80;;
23678;SDS011;12016;51.668;6.874;2022-09-09T20:56:19;2.03;;;1.80;;
23678;SDS011;12016;51.668;6.874;2022-09-09T21:02:21;2.88;;;2.20;;
23678;SDS011;12016;51.668;6.874;2022-09-09T21:08:24;3.33;;;2.47;;
23678;SDS011;12016;51.668;6.874;2022-09-09T21:14:29;3.10;;;2.80;;
23678;SDS011;12016;51.668;6.874;2022-09-09T21:20:31;5.60;;;3.45;;
23678;SDS011;12016;51.668;6.874;2022-09-09T21:26:33;8.07;;;3.10;;
23678;SDS011;12016;51.668;6.874;2022-09-09T21:32:35;4.90;;;3.50;;
23678;SDS011;12016;51.668;6.874;2022-09-09T21:38:38;5.00;;;3.28;;
23678;SDS011;12016;51.668;6.874;2022-09-09T21:44:41;5.45;;;3.30;;
23678;SDS011;12016;51.668;6.874;2022-09-09T21:50:43;5.35;;;3.85;;
23678;SDS011;12016;51.668;6.874;2022-09-09T21:56:48;4.45;;;3.33;;
23678;SDS011;12016;51.668;6.874;2022-09-09T22:02:50;5.25;;;3.10;;
23678;SDS011;12016;51.668;6.874;2022-09-09T22:08:52;6.03;;;2.80;;
23678;SDS011;12016;51.668;6.874;2022-09-09T22:14:55;6.22;;;2.67;;
23678;SDS011;12016;51.668;6.874;2022-09-09T22:20:58;3.85;;;2.17;;
23678;SDS011;12016;51.668;6.874;2022-09-09T22:27:06;5.05;;;2.38;;
23678;SDS011;12016;51.668;6.874;2022-09-09T22:33:08;5.25;;;2.40;;
23678;SDS011;12016;51.668;6.874;2022-09-09T22:39:09;4.38;;;2.50;;
23678;SDS011;12016;51.668;6.874;2022-09-09T22:45:11;4.03;;;2.40;;
23678;SDS011;12016;51.668;6.874;2022-09-09T22:51:13;3.65;;;2.30;;
23678;SDS011;12016;51.668;6.874;2022-09-09T22:57:15;5.55;;;2.63;;
23678;SDS011;12016;51.668;6.874;2022-09-09T23:03:17;4.32;;;2.60;;
23678;SDS011;12016;51.668;6.874;2022-09-09T23:09:22;5.28;;;3.33;;
23678;SDS011;12016;51.668;6.874;2022-09-09T23:15:26;4.30;;;3.25;;
23678;SDS011;12016;51.668;6.874;2022-09-09T23:21:32;7.15;;;3.70;;
23678;SDS011;12016;51.668;6.874;2022-09-09T23:27:34;5.05;;;3.28;;
23678;SDS011;12016;51.668;6.874;2022-09-09T23:33:40;5.80;;;3.50;;
23678;SDS011;12016;51.668;6.874;2022-09-09T23:39:46;5.65;;;3.55;;
23678;SDS011;12016;51.668;6.874;2022-09-09T23:45:48;7.30;;;3.70;;
23678;SDS011;12016;51.668;6.874;2022-09-09T23:51:50;5.05;;;3.60;;
23678;SDS011;12016;51.668;6.874;2022-09-09T23:57:52;8.55;;;4.30;;
